createdAt,value
2019-04-05T00:05:22.450Z,7.17
2019-04-05T00:12:07.375Z,6.23
2019-04-05T00:18:52.256Z,6.90
2019-04-05T00:25:37.246Z,6.23
2019-04-05T00:32:22.223Z,6.83
2019-04-05T00:39:08.715Z,6.20
2019-04-05T00:45:53.631Z,6.50
2019-04-05T00:52:38.495Z,6.92
2019-04-05T00:59:23.411Z,7.07
2019-04-05T01:06:08.391Z,6.73
2019-04-05T01:12:54.798Z,7.17
2019-04-05T01:19:41.417Z,7.53
2019-04-05T01:26:26.731Z,8.10
2019-04-05T01:33:11.930Z,8.40
2019-04-05T01:39:57.315Z,7.90
2019-04-05T01:46:42.714Z,8.60
2019-04-05T01:53:27.922Z,9.60
2019-04-05T02:00:13.674Z,9.60
2019-04-05T02:06:58.774Z,10.47
2019-04-05T02:13:43.710Z,13.37
2019-04-05T02:20:28.705Z,11.70
2019-04-05T02:27:13.894Z,11.10
2019-04-05T02:33:59.081Z,9.70
2019-04-05T02:40:45.011Z,10.43
2019-04-05T02:47:30.472Z,10.50
2019-04-05T02:54:17.504Z,11.40
2019-04-05T03:01:02.971Z,11.13
2019-04-05T03:07:48.140Z,11.37
2019-04-05T03:14:33.422Z,11.67
2019-04-05T03:21:21.006Z,11.27
2019-04-05T03:28:06.312Z,10.03
2019-04-05T03:34:51.743Z,10.47
2019-04-05T03:41:37.791Z,10.30
2019-04-05T03:48:22.956Z,10.00
2019-04-05T03:55:08.055Z,11.73
2019-04-05T04:01:53.058Z,11.77
2019-04-05T04:08:38.228Z,11.90
2019-04-05T04:15:24.824Z,11.43
2019-04-05T04:22:15.721Z,11.90
2019-04-05T04:29:00.647Z,11.20
2019-04-05T04:35:45.638Z,9.73
2019-04-05T04:42:30.947Z,12.77
2019-04-05T04:49:16.343Z,11.80
2019-04-05T04:56:01.631Z,10.50
2019-04-05T05:02:47.094Z,10.80
2019-04-05T05:09:33.519Z,9.87
2019-04-05T05:16:18.502Z,9.90
2019-04-05T05:23:03.578Z,9.23
2019-04-05T05:29:49.066Z,9.50
2019-04-05T05:36:34.175Z,9.03
2019-04-05T05:43:20.126Z,9.27
2019-04-05T05:50:07.353Z,9.17
2019-04-05T05:56:53.294Z,8.57
2019-04-05T06:03:38.620Z,8.70
2019-04-05T06:10:23.892Z,9.23
2019-04-05T06:17:09.076Z,9.37
2019-04-05T06:23:54.000Z,8.67
2019-04-05T06:30:39.286Z,8.50
2019-04-05T06:37:24.138Z,8.97
2019-04-05T06:44:08.991Z,8.70
2019-04-05T06:50:54.389Z,8.10
2019-04-05T06:57:39.456Z,8.13
2019-04-05T07:04:25.415Z,8.50
2019-04-05T07:11:10.267Z,8.67
2019-04-05T07:17:55.263Z,9.63
2019-04-05T07:24:42.161Z,9.37
2019-04-05T07:31:27.149Z,8.60
2019-04-05T07:38:12.027Z,9.63
2019-04-05T07:44:56.962Z,9.67
2019-04-05T07:51:42.787Z,8.97
2019-04-05T07:58:27.642Z,9.50
2019-04-05T08:05:15.000Z,10.30
2019-04-05T08:12:01.159Z,11.60
2019-04-05T08:18:57.209Z,11.77
2019-04-05T08:25:32.640Z,11.10
2019-04-05T08:32:17.495Z,10.90
2019-04-05T08:39:02.598Z,11.87
2019-04-05T08:45:48.848Z,11.10
2019-04-05T08:52:34.794Z,11.67
2019-04-05T08:59:19.715Z,11.73
2019-04-05T09:06:04.913Z,12.87
2019-04-05T09:12:49.848Z,15.43
2019-04-05T09:19:34.702Z,13.30
2019-04-05T09:26:21.103Z,14.00
2019-04-05T09:33:06.343Z,13.17
2019-04-05T09:39:51.471Z,13.00
2019-04-05T09:46:45.936Z,12.17
2019-04-05T09:53:22.967Z,11.70
2019-04-05T10:00:12.261Z,10.77
2019-04-05T10:06:57.472Z,10.63
2019-04-05T10:13:42.409Z,10.55
2019-04-05T10:20:27.275Z,11.47
2019-04-05T10:27:12.222Z,12.00
2019-04-05T10:33:57.176Z,14.05
2019-04-05T10:40:42.045Z,12.60
2019-04-05T10:47:26.911Z,13.75
2019-04-05T10:54:11.876Z,13.03
2019-04-05T11:00:57.068Z,10.67
2019-04-05T11:07:42.120Z,11.17
2019-04-05T11:14:29.461Z,8.87
2019-04-05T11:21:16.201Z,10.80
2019-04-05T11:28:03.360Z,10.37
2019-04-05T11:34:48.536Z,10.03
2019-04-05T11:41:35.365Z,10.47
2019-04-05T11:48:21.444Z,9.43
2019-04-05T11:55:08.319Z,9.90
2019-04-05T12:02:06.846Z,8.03
2019-04-05T12:08:52.848Z,8.97
2019-04-05T12:15:37.711Z,10.10
2019-04-05T12:22:22.576Z,9.67
2019-04-05T12:29:07.440Z,9.23
2019-04-05T12:35:56.167Z,10.67
2019-04-05T12:42:42.600Z,9.63
2019-04-05T12:49:25.441Z,9.53
2019-04-05T12:56:10.439Z,9.30
2019-04-05T13:02:57.050Z,10.70
2019-04-05T13:09:45.369Z,10.80
2019-04-05T13:16:28.598Z,10.63
2019-04-05T13:23:13.535Z,11.17
2019-04-05T13:29:58.685Z,10.67
2019-04-05T13:36:43.624Z,10.53
2019-04-05T13:43:29.739Z,12.03
2019-04-05T13:50:15.467Z,11.93
2019-04-05T13:57:00.402Z,10.37
2019-04-05T14:03:45.432Z,11.03
2019-04-05T14:10:30.375Z,9.63
2019-04-05T14:17:16.402Z,9.03
2019-04-05T14:24:04.223Z,8.70
2019-04-05T14:30:50.333Z,8.93
2019-04-05T14:37:35.567Z,8.78
2019-04-05T14:44:21.887Z,9.30
2019-04-05T14:51:06.992Z,8.87
2019-04-05T14:57:51.943Z,9.07
2019-04-05T15:04:36.811Z,9.30
2019-04-05T15:11:21.806Z,9.47
2019-04-05T15:18:06.739Z,9.77
2019-04-05T15:24:51.614Z,10.33
2019-04-05T15:31:36.547Z,8.97
2019-04-05T15:38:21.475Z,8.83
2019-04-05T15:45:08.351Z,8.63
2019-04-05T15:51:55.082Z,10.03
2019-04-05T15:58:40.203Z,8.80
2019-04-05T16:05:25.258Z,10.33
2019-04-05T16:12:10.306Z,9.73
2019-04-05T16:18:58.233Z,10.27
2019-04-05T16:25:43.483Z,9.73
2019-04-05T16:32:29.408Z,9.45
2019-04-05T16:39:16.102Z,8.95
2019-04-05T16:46:01.085Z,10.07
2019-04-05T16:52:46.093Z,9.97
2019-04-05T16:59:31.024Z,10.27
2019-04-05T17:06:16.095Z,10.80
2019-04-05T17:13:01.128Z,11.40
2019-04-05T17:19:46.141Z,10.63
2019-04-05T17:26:31.172Z,11.87
2019-04-05T17:33:16.109Z,11.57
2019-04-05T17:40:01.206Z,10.93
2019-04-05T17:46:46.239Z,11.17
2019-04-05T17:53:31.102Z,13.07
2019-04-05T18:00:17.816Z,12.30
2019-04-05T18:07:03.147Z,11.00
2019-04-05T18:13:48.342Z,12.83
2019-04-05T18:20:33.430Z,11.40
2019-04-05T18:27:18.367Z,10.40
2019-04-05T18:34:03.826Z,11.03
2019-04-05T18:40:48.818Z,11.90
2019-04-05T18:47:33.824Z,17.77
2019-04-05T18:54:18.678Z,12.17
2019-04-05T19:01:03.743Z,13.10
2019-04-05T19:07:48.738Z,16.40
2019-04-05T19:14:33.667Z,13.40
2019-04-05T19:21:18.960Z,12.37
2019-04-05T19:28:04.004Z,11.73
2019-04-05T19:55:10.008Z,13.00
2019-04-05T20:01:55.198Z,12.60
2019-04-05T20:08:40.124Z,11.50
2019-04-05T20:15:24.982Z,12.30
2019-04-05T20:22:09.829Z,13.37
2019-04-05T20:28:54.701Z,12.67
2019-04-05T20:35:39.631Z,13.47
2019-04-05T20:42:24.543Z,12.98
2019-04-05T20:49:09.504Z,13.03
2019-04-05T20:55:54.435Z,13.43
2019-04-05T21:02:39.372Z,13.27
2019-04-05T21:09:24.298Z,14.00
2019-04-05T21:16:09.300Z,12.23
2019-04-05T21:22:55.126Z,12.37
2019-04-05T21:29:40.050Z,13.27
2019-04-05T21:36:24.916Z,12.87
2019-04-05T21:43:10.395Z,13.57
2019-04-05T21:49:55.835Z,13.07
2019-04-05T21:56:40.773Z,13.47
2019-04-05T22:03:26.010Z,15.27
2019-04-05T22:10:11.426Z,12.57
2019-04-05T22:16:57.077Z,14.30
2019-04-05T22:23:42.083Z,14.80
2019-04-05T22:30:26.943Z,15.00
2019-04-05T22:37:12.674Z,13.80
2019-04-05T22:43:57.705Z,15.20
2019-04-05T22:50:43.415Z,13.77
2019-04-05T22:57:28.520Z,19.15
2019-04-05T23:04:13.558Z,17.77
2019-04-05T23:10:58.508Z,23.40
2019-04-05T23:17:43.362Z,23.77
2019-04-05T23:24:28.733Z,23.77
2019-04-05T23:31:14.711Z,19.53
2019-04-05T23:37:59.650Z,18.83
2019-04-05T23:44:44.827Z,18.37
2019-04-05T23:51:30.655Z,17.27
2019-04-05T23:58:15.678Z,16.93
